createdAt,value
2023-05-24T00:00:13.352Z,8.80
2023-05-24T00:02:43.585Z,8.70
2023-05-24T00:05:11.177Z,8.70
2023-05-24T00:07:38.456Z,8.60
2023-05-24T00:10:06.377Z,8.50
2023-05-24T00:12:33.406Z,8.50
2023-05-24T00:17:32.410Z,8.50
2023-05-24T00:19:59.930Z,8.50
2023-05-24T00:22:26.896Z,8.60
2023-05-24T00:24:53.829Z,8.60
2023-05-24T00:27:20.786Z,8.50
2023-05-24T00:29:47.705Z,8.50
2023-05-24T00:32:14.649Z,8.30
2023-05-24T00:34:41.621Z,8.30
2023-05-24T00:37:08.566Z,8.30
2023-05-24T00:39:35.571Z,8.20
2023-05-24T00:42:02.952Z,8.20
2023-05-24T00:44:30.241Z,8.20
2023-05-24T00:46:57.417Z,8.20
2023-05-24T00:49:24.755Z,8.20
2023-05-24T00:51:52.993Z,8.30
2023-05-24T00:54:20.926Z,8.30
2023-05-24T00:56:48.590Z,8.20
2023-05-24T00:59:15.540Z,8.20
2023-05-24T01:01:43.103Z,8.20
2023-05-24T01:04:10.069Z,8.20
2023-05-24T01:06:46.249Z,8.20
2023-05-24T01:09:34.518Z,8.00
2023-05-24T01:12:11.757Z,8.00
2023-05-24T01:17:46.362Z,7.80
2023-05-24T01:20:15.173Z,7.70
2023-05-24T01:22:45.051Z,7.70
2023-05-24T01:25:32.827Z,7.70
2023-05-24T01:28:00.984Z,7.70
2023-05-24T01:30:28.948Z,7.60
2023-05-24T01:32:56.057Z,7.50
2023-05-24T01:35:23.005Z,7.40
2023-05-24T01:37:49.884Z,7.50
2023-05-24T01:40:17.030Z,7.30
2023-05-24T01:42:56.733Z,7.30
2023-05-24T01:45:30.255Z,7.20
2023-05-24T01:48:07.768Z,7.20
2023-05-24T01:50:45.674Z,7.00
2023-05-24T01:53:16.483Z,7.00
2023-05-24T01:55:45.097Z,6.90
2023-05-24T01:58:13.824Z,6.80
2023-05-24T02:03:22.576Z,6.80
2023-05-24T02:05:49.736Z,6.80
2023-05-24T02:08:16.778Z,6.80
2023-05-24T02:10:43.769Z,6.80
2023-05-24T02:13:10.953Z,6.80
2023-05-24T02:15:37.894Z,6.70
2023-05-24T02:18:08.260Z,6.60
2023-05-24T02:20:37.363Z,6.60
2023-05-24T02:23:04.758Z,6.60
2023-05-24T02:25:32.203Z,6.60
2023-05-24T02:28:02.340Z,6.70
2023-05-24T02:30:29.262Z,6.70
2023-05-24T02:32:56.410Z,6.70
2023-05-24T02:35:23.348Z,6.80
2023-05-24T02:37:50.308Z,6.60
2023-05-24T02:40:17.410Z,6.50
2023-05-24T02:42:44.285Z,6.40
2023-05-24T02:45:11.394Z,6.50
2023-05-24T02:47:38.330Z,6.50
2023-05-24T02:50:05.850Z,6.50
2023-05-24T02:52:33.318Z,6.40
2023-05-24T02:55:00.185Z,6.40
2023-05-24T02:57:28.926Z,6.40
2023-05-24T02:59:56.315Z,6.40
2023-05-24T03:02:23.364Z,6.40
2023-05-24T03:04:50.402Z,6.40
2023-05-24T03:07:17.554Z,6.40
2023-05-24T03:09:44.458Z,6.40
2023-05-24T03:12:11.624Z,6.50
2023-05-24T03:14:38.533Z,6.50
2023-05-24T03:17:05.535Z,6.60
2023-05-24T03:19:32.398Z,6.50
2023-05-24T03:21:59.356Z,6.50
2023-05-24T03:24:26.400Z,6.40
2023-05-24T03:26:53.360Z,6.40
2023-05-24T03:29:20.252Z,6.50
2023-05-24T03:31:47.211Z,6.50
2023-05-24T03:34:14.110Z,6.40
2023-05-24T03:36:40.966Z,6.50
2023-05-24T03:39:08.101Z,6.50
2023-05-24T03:41:35.025Z,6.50
2023-05-24T03:44:01.897Z,6.50
2023-05-24T03:46:28.875Z,6.50
2023-05-24T03:48:55.861Z,6.50
2023-05-24T03:51:29.698Z,6.60
2023-05-24T03:53:59.570Z,6.60
2023-05-24T03:56:27.188Z,6.70
2023-05-24T03:58:54.335Z,6.70
2023-05-24T04:01:32.708Z,6.70
2023-05-24T04:04:01.699Z,6.90
2023-05-24T04:06:29.626Z,7.00
2023-05-24T04:08:57.416Z,7.10
2023-05-24T04:11:28.295Z,7.20
2023-05-24T04:13:56.369Z,7.40
2023-05-24T04:16:24.741Z,7.70
2023-05-24T04:18:51.777Z,7.90
2023-05-24T04:21:19.013Z,8.20
2023-05-24T04:23:46.270Z,8.30
2023-05-24T04:26:14.317Z,8.20
2023-05-24T04:28:41.370Z,8.20
2023-05-24T04:31:10.064Z,8.20
2023-05-24T04:33:37.519Z,8.20
2023-05-24T04:36:04.557Z,8.20
2023-05-24T04:38:32.616Z,8.40
2023-05-24T04:40:59.680Z,8.50
2023-05-24T04:43:26.852Z,8.60
2023-05-24T04:45:57.651Z,8.80
2023-05-24T04:48:24.979Z,9.00
2023-05-24T04:50:56.154Z,9.10
2023-05-24T04:53:23.371Z,9.20
2023-05-24T04:55:50.774Z,9.20
2023-05-24T04:58:18.191Z,9.40
2023-05-24T05:00:45.262Z,9.80
2023-05-24T05:03:12.392Z,10.30
2023-05-24T05:05:39.376Z,10.90
2023-05-24T05:08:06.868Z,11.90
2023-05-24T05:10:33.838Z,12.50
2023-05-24T05:13:00.807Z,13.10
2023-05-24T05:15:27.872Z,14.10
2023-05-24T05:17:54.899Z,14.70
2023-05-24T05:20:23.228Z,15.10
2023-05-24T05:22:50.180Z,14.80
2023-05-24T05:25:17.112Z,14.60
2023-05-24T05:27:44.055Z,14.20
2023-05-24T05:30:11.420Z,13.60
2023-05-24T05:32:38.368Z,13.10
2023-05-24T05:35:06.240Z,12.50
2023-05-24T05:37:33.194Z,12.10
2023-05-24T05:40:00.219Z,11.70
2023-05-24T05:42:27.165Z,11.50
2023-05-24T05:44:54.055Z,11.40
2023-05-24T05:47:20.927Z,11.20
2023-05-24T05:49:47.798Z,11.10
2023-05-24T05:52:14.719Z,11.20
2023-05-24T05:54:41.765Z,11.20
2023-05-24T05:57:10.764Z,11.30
2023-05-24T05:59:38.502Z,11.30
2023-05-24T06:02:07.003Z,11.40
2023-05-24T06:04:34.624Z,11.60
2023-05-24T06:07:01.736Z,11.80
2023-05-24T06:09:28.668Z,11.60
2023-05-24T06:11:55.764Z,11.70
2023-05-24T06:14:25.411Z,12.00
2023-05-24T06:16:54.798Z,12.50
2023-05-24T06:19:22.113Z,13.80
2023-05-24T06:21:50.740Z,14.80
2023-05-24T06:24:22.374Z,15.70
2023-05-24T06:26:51.649Z,16.20
2023-05-24T06:29:23.041Z,16.90
2023-05-24T06:31:50.721Z,17.40
2023-05-24T06:34:21.773Z,18.30
2023-05-24T06:36:49.034Z,19.20
2023-05-24T06:39:16.668Z,19.50
2023-05-24T06:41:44.754Z,19.60
2023-05-24T06:44:11.653Z,20.10
2023-05-24T06:46:39.176Z,20.40
2023-05-24T06:49:06.165Z,21.10
2023-05-24T06:51:34.014Z,20.70
2023-05-24T06:54:01.159Z,19.40
2023-05-24T06:56:29.189Z,18.10
2023-05-24T06:58:56.829Z,16.70
2023-05-24T07:01:23.878Z,16.00
2023-05-24T07:03:50.930Z,15.20
2023-05-24T07:06:18.571Z,14.70
2023-05-24T07:08:45.439Z,14.70
2023-05-24T07:11:12.581Z,15.00
2023-05-24T07:13:39.516Z,15.10
2023-05-24T07:16:07.313Z,15.40
2023-05-24T07:18:34.301Z,15.30
2023-05-24T07:21:01.388Z,15.80
2023-05-24T07:23:28.478Z,16.70
2023-05-24T07:25:55.428Z,17.30
2023-05-24T07:28:22.301Z,18.10
2023-05-24T07:30:49.621Z,18.10
2023-05-24T07:33:16.933Z,17.70
2023-05-24T07:35:45.990Z,18.20
2023-05-24T07:38:13.073Z,18.50
2023-05-24T07:40:40.104Z,18.60
2023-05-24T07:43:07.097Z,19.40
2023-05-24T07:45:34.311Z,19.00
2023-05-24T07:48:01.911Z,18.30
2023-05-24T07:50:29.575Z,18.30
2023-05-24T07:52:57.521Z,19.50
2023-05-24T07:55:25.839Z,20.20
2023-05-24T07:57:52.750Z,21.00
2023-05-24T08:00:20.333Z,20.60
2023-05-24T08:02:47.322Z,19.90
2023-05-24T08:05:18.006Z,18.60
2023-05-24T08:07:45.836Z,17.60
2023-05-24T08:10:14.002Z,17.50
2023-05-24T08:12:41.821Z,16.50
2023-05-24T08:15:09.314Z,16.40
2023-05-24T08:17:36.782Z,16.40
2023-05-24T08:20:09.063Z,15.90
2023-05-24T08:22:37.606Z,15.80
2023-05-24T08:25:05.018Z,15.90
2023-05-24T08:27:32.022Z,16.30
2023-05-24T08:29:59.222Z,16.70
2023-05-24T08:32:26.125Z,17.60
2023-05-24T08:34:58.137Z,18.40
2023-05-24T08:37:32.121Z,19.50
2023-05-24T08:39:59.469Z,18.90
2023-05-24T08:42:27.734Z,17.90
2023-05-24T08:45:02.033Z,17.30
2023-05-24T08:47:31.069Z,16.60
2023-05-24T08:49:58.163Z,16.30
2023-05-24T08:52:25.857Z,15.90
2023-05-24T08:54:53.357Z,15.70
2023-05-24T08:57:21.793Z,15.90
2023-05-24T08:59:48.684Z,16.00
2023-05-24T09:02:16.620Z,16.10
2023-05-24T09:04:45.961Z,16.00
2023-05-24T09:07:15.032Z,16.30
2023-05-24T09:09:46.780Z,16.60
2023-05-24T09:12:28.394Z,16.80
2023-05-24T09:15:04.801Z,16.60
2023-05-24T09:17:33.812Z,16.70
2023-05-24T09:20:01.269Z,16.60
2023-05-24T09:22:30.918Z,16.70
2023-05-24T09:25:00.489Z,17.40
2023-05-24T09:27:28.113Z,17.60
2023-05-24T09:29:56.161Z,17.50
2023-05-24T09:32:24.714Z,17.30
2023-05-24T09:34:54.123Z,16.90
2023-05-24T09:37:27.629Z,16.60
2023-05-24T09:39:58.674Z,17.50
2023-05-24T09:42:28.294Z,18.10
2023-05-24T09:45:01.925Z,18.20
2023-05-24T09:47:30.713Z,17.90
2023-05-24T09:49:58.180Z,17.60
2023-05-24T09:52:25.186Z,17.30
2023-05-24T09:54:52.589Z,17.10
2023-05-24T09:57:22.548Z,17.00
2023-05-24T09:59:50.361Z,17.00
2023-05-24T10:02:20.551Z,16.60
2023-05-24T10:04:48.050Z,16.30
2023-05-24T10:07:16.438Z,16.00
2023-05-24T10:09:45.218Z,15.80
2023-05-24T10:12:12.088Z,15.80
2023-05-24T10:14:39.526Z,15.70
2023-05-24T10:17:08.006Z,15.90
2023-05-24T10:19:36.665Z,15.70
2023-05-24T10:22:08.617Z,15.60
2023-05-24T10:24:47.373Z,16.10
2023-05-24T10:27:23.360Z,16.10
2023-05-24T10:30:24.663Z,16.40
2023-05-24T10:32:53.843Z,16.20
2023-05-24T10:35:21.214Z,16.20
2023-05-24T10:37:48.320Z,16.50
2023-05-24T10:40:25.516Z,16.60
2023-05-24T10:42:54.972Z,16.60
2023-05-24T10:45:27.976Z,16.80
2023-05-24T10:47:56.668Z,16.80
2023-05-24T10:50:25.359Z,16.70
2023-05-24T10:53:10.892Z,16.90
2023-05-24T10:55:55.411Z,17.10
2023-05-24T10:58:58.670Z,17.10
2023-05-24T11:01:32.762Z,17.00
2023-05-24T11:04:15.961Z,17.00
2023-05-24T11:07:02.122Z,17.00
2023-05-24T11:09:30.005Z,16.90
2023-05-24T11:12:00.797Z,16.80
2023-05-24T11:14:29.491Z,16.70
2023-05-24T11:16:56.894Z,16.60
2023-05-24T11:19:29.293Z,16.60
2023-05-24T11:22:01.439Z,16.40
2023-05-24T11:24:29.282Z,16.70
2023-05-24T11:26:57.295Z,16.80
2023-05-24T11:29:24.523Z,16.90
2023-05-24T11:31:57.896Z,16.80
2023-05-24T11:34:27.488Z,16.90
2023-05-24T11:36:55.644Z,17.10
2023-05-24T11:39:23.828Z,17.10
2023-05-24T11:41:50.987Z,17.00
2023-05-24T11:44:19.812Z,17.00
2023-05-24T11:46:47.222Z,17.00
2023-05-24T11:49:17.757Z,17.20
2023-05-24T11:51:44.800Z,17.20
2023-05-24T11:54:12.074Z,17.30
2023-05-24T11:56:39.150Z,17.10
2023-05-24T11:59:22.821Z,17.30
2023-05-24T12:01:51.712Z,17.50
2023-05-24T12:04:18.693Z,17.60
2023-05-24T12:06:46.288Z,18.00
2023-05-24T12:09:14.043Z,18.30
2023-05-24T12:11:47.651Z,18.50
2023-05-24T12:14:20.335Z,18.60
2023-05-24T12:16:47.764Z,18.70
2023-05-24T12:19:31.580Z,18.70
2023-05-24T12:21:59.978Z,19.00
2023-05-24T12:24:27.676Z,18.90
2023-05-24T12:27:00.324Z,18.90
2023-05-24T12:29:27.528Z,18.70
2023-05-24T12:31:54.634Z,18.70
2023-05-24T12:34:21.803Z,18.60
2023-05-24T12:36:48.772Z,18.40
2023-05-24T12:39:34.411Z,18.30
2023-05-24T12:42:02.350Z,18.00
2023-05-24T12:44:37.003Z,17.60
2023-05-24T12:47:06.896Z,17.20
2023-05-24T12:49:34.482Z,17.00
2023-05-24T12:52:04.762Z,16.90
2023-05-24T12:54:31.710Z,16.80
2023-05-24T12:57:00.547Z,16.60
2023-05-24T12:59:28.854Z,16.30
2023-05-24T13:01:56.356Z,16.20
2023-05-24T13:04:27.675Z,16.10
2023-05-24T13:06:54.933Z,16.00
2023-05-24T13:09:23.889Z,16.00
2023-05-24T13:11:51.605Z,16.00
2023-05-24T13:14:20.231Z,16.00
2023-05-24T13:16:48.024Z,15.90
2023-05-24T13:19:15.084Z,15.90
2023-05-24T13:21:42.805Z,15.90
2023-05-24T13:24:10.047Z,15.70
2023-05-24T13:26:38.346Z,15.50
2023-05-24T13:31:41.362Z,15.30
2023-05-24T13:34:09.318Z,15.20
2023-05-24T13:39:25.023Z,15.80
2023-05-24T13:41:52.310Z,16.20
2023-05-24T13:44:19.373Z,16.20
2023-05-24T13:46:46.364Z,16.40
2023-05-24T13:47:41.319Z,15.40
2023-05-24T13:49:13.611Z,16.50
2023-05-24T13:51:40.854Z,16.60
2023-05-24T13:54:08.468Z,16.50
2023-05-24T13:56:35.944Z,16.60
2023-05-24T13:59:03.886Z,16.50
2023-05-24T14:01:31.493Z,16.50
2023-05-24T14:03:58.910Z,16.80
2023-05-24T14:06:25.874Z,17.10
2023-05-24T14:08:52.807Z,17.10
2023-05-24T14:11:20.007Z,17.10
2023-05-24T14:16:17.196Z,16.90
2023-05-24T14:18:44.838Z,16.70
2023-05-24T14:21:12.141Z,16.70
2023-05-24T14:23:39.391Z,16.70
2023-05-24T14:26:06.932Z,16.70
2023-05-24T14:28:33.865Z,16.90
2023-05-24T14:31:00.768Z,16.80
2023-05-24T14:33:27.677Z,16.90
2023-05-24T14:35:54.825Z,17.00
2023-05-24T14:38:24.061Z,17.30
2023-05-24T14:43:31.962Z,17.70
2023-05-24T14:45:58.954Z,17.70
2023-05-24T14:48:26.035Z,17.60
2023-05-24T14:50:53.040Z,17.60
2023-05-24T14:53:21.119Z,17.10
2023-05-24T14:55:48.232Z,16.90
2023-05-24T14:58:15.488Z,16.90
2023-05-24T15:00:43.172Z,16.70
2023-05-24T15:05:53.175Z,16.70
2023-05-24T15:08:20.160Z,16.80
2023-05-24T15:10:47.096Z,17.20
2023-05-24T15:13:14.126Z,17.20
2023-05-24T15:15:42.253Z,17.30
2023-05-24T15:18:09.712Z,17.40
2023-05-24T15:20:36.886Z,17.40
2023-05-24T15:23:04.213Z,17.00
2023-05-24T15:25:31.297Z,16.90
2023-05-24T15:27:58.310Z,16.60
2023-05-24T15:30:25.269Z,16.60
2023-05-24T15:32:52.216Z,16.50
2023-05-24T15:35:19.171Z,16.50
2023-05-24T15:37:46.362Z,16.70
2023-05-24T15:40:13.824Z,16.80
2023-05-24T15:42:40.794Z,17.00
2023-05-24T15:45:08.199Z,17.10
2023-05-24T15:47:40.017Z,17.20
2023-05-24T15:50:11.049Z,17.30
2023-05-24T15:52:38.047Z,17.30
2023-05-24T15:55:05.311Z,17.30
2023-05-24T15:57:32.408Z,17.50
2023-05-24T15:59:59.461Z,17.60
2023-05-24T16:02:26.556Z,17.60
2023-05-24T16:04:53.677Z,17.40
2023-05-24T16:07:20.582Z,17.30
2023-05-24T16:09:47.558Z,17.20
2023-05-24T16:12:14.423Z,17.10
2023-05-24T16:14:41.498Z,17.10
2023-05-24T16:17:08.552Z,17.30
2023-05-24T16:19:35.640Z,17.30
2023-05-24T16:22:02.678Z,17.30
2023-05-24T16:24:29.756Z,17.20
2023-05-24T16:26:57.828Z,17.20
2023-05-24T16:29:24.913Z,17.30
2023-05-24T16:31:52.237Z,17.20
2023-05-24T16:34:19.323Z,17.30
2023-05-24T16:36:47.170Z,17.30
2023-05-24T16:39:14.164Z,17.40
2023-05-24T16:41:41.050Z,17.30
2023-05-24T16:44:07.912Z,17.20
2023-05-24T16:46:35.071Z,17.00
2023-05-24T16:49:02.814Z,16.90
2023-05-24T16:51:30.411Z,16.90
2023-05-24T16:53:57.368Z,16.90
2023-05-24T16:56:24.286Z,16.80
2023-05-24T16:58:51.446Z,16.70
2023-05-24T17:01:18.376Z,16.60
2023-05-24T17:03:45.476Z,16.60
2023-05-24T17:06:12.516Z,16.80
2023-05-24T17:08:39.413Z,16.80
2023-05-24T17:11:07.273Z,16.90
2023-05-24T17:13:34.441Z,16.90
2023-05-24T17:16:03.858Z,16.70
2023-05-24T17:18:31.307Z,16.30
2023-05-24T17:21:04.479Z,16.30
2023-05-24T17:23:33.311Z,16.20
2023-05-24T17:26:01.711Z,16.10
2023-05-24T17:28:29.427Z,16.10
2023-05-24T17:31:00.674Z,16.10
2023-05-24T17:33:29.866Z,16.10
2023-05-24T17:35:57.779Z,16.10
2023-05-24T17:38:25.374Z,16.00
2023-05-24T17:40:59.794Z,15.90
2023-05-24T17:43:32.710Z,16.00
2023-05-24T17:46:06.945Z,16.00
2023-05-24T17:48:35.528Z,15.90
2023-05-24T17:51:09.837Z,16.00
2023-05-24T17:53:37.762Z,16.00
2023-05-24T17:56:05.704Z,15.90
2023-05-24T17:58:36.661Z,15.90
2023-05-24T18:01:05.442Z,15.80
2023-05-24T18:03:33.701Z,15.90
2023-05-24T18:06:01.295Z,15.80
2023-05-24T18:08:28.281Z,16.00
2023-05-24T18:10:55.173Z,16.00
2023-05-24T18:13:22.324Z,16.00
2023-05-24T18:15:50.183Z,15.90
2023-05-24T18:18:20.249Z,15.90
2023-05-24T18:20:47.237Z,16.00
2023-05-24T18:23:14.185Z,15.90
2023-05-24T18:25:41.362Z,15.80
2023-05-24T18:28:08.310Z,15.90
2023-05-24T18:30:35.276Z,15.80
2023-05-24T18:33:07.531Z,15.70
2023-05-24T18:35:34.963Z,15.70
2023-05-24T18:38:01.985Z,15.70
2023-05-24T18:40:28.845Z,15.60
2023-05-24T18:42:55.794Z,15.60
2023-05-24T18:45:23.069Z,15.60
2023-05-24T18:47:50.118Z,15.60
2023-05-24T18:50:17.263Z,15.80
2023-05-24T18:52:44.149Z,15.70
2023-05-24T18:55:11.066Z,15.50
2023-05-24T18:57:38.622Z,15.50
2023-05-24T19:00:07.410Z,15.40
2023-05-24T19:02:38.900Z,15.30
2023-05-24T19:05:07.428Z,15.30
2023-05-24T19:07:35.171Z,15.30
2023-05-24T19:10:02.272Z,15.30
2023-05-24T19:12:29.270Z,15.30
2023-05-24T19:17:21.591Z,15.10
2023-05-24T19:19:49.392Z,15.10
2023-05-24T19:22:17.069Z,15.20
2023-05-24T19:24:44.156Z,15.10
2023-05-24T19:27:11.176Z,15.00
2023-05-24T19:29:40.101Z,15.00
2023-05-24T19:32:08.473Z,14.90
2023-05-24T19:34:37.435Z,14.90
2023-05-24T19:37:04.677Z,14.90
2023-05-24T19:39:31.587Z,14.80
2023-05-24T19:41:58.485Z,14.60
2023-05-24T19:44:25.368Z,14.70
2023-05-24T19:46:52.240Z,14.60
2023-05-24T19:49:19.442Z,14.60
2023-05-24T19:51:46.428Z,14.30
2023-05-24T19:54:13.867Z,14.30
2023-05-24T19:56:40.879Z,14.10
2023-05-24T19:59:07.868Z,14.10
2023-05-24T20:01:34.859Z,14.00
2023-05-24T20:04:01.994Z,14.10
2023-05-24T20:06:29.661Z,14.00
2023-05-24T20:08:58.930Z,13.80
2023-05-24T20:11:26.729Z,13.70
2023-05-24T20:13:53.677Z,13.70
2023-05-24T20:16:21.673Z,13.60
2023-05-24T20:18:48.688Z,13.60
2023-05-24T20:21:17.620Z,13.60
2023-05-24T20:23:44.512Z,13.50
2023-05-24T20:26:11.455Z,13.30
2023-05-24T20:28:38.399Z,13.40
2023-05-24T20:31:06.945Z,13.30
2023-05-24T20:33:38.398Z,13.30
2023-05-24T20:36:05.852Z,13.20
2023-05-24T20:38:32.809Z,13.20
2023-05-24T20:41:00.196Z,13.30
2023-05-24T20:43:27.154Z,13.20
2023-05-24T20:45:54.528Z,13.10
2023-05-24T20:48:21.644Z,13.00
2023-05-24T20:50:48.687Z,13.00
2023-05-24T20:53:15.621Z,12.90
2023-05-24T20:55:42.704Z,12.70
2023-05-24T20:58:09.855Z,12.70
2023-05-24T21:00:38.902Z,12.60
2023-05-24T21:03:07.007Z,12.50
2023-05-24T21:05:36.528Z,12.50
2023-05-24T21:08:04.001Z,12.50
2023-05-24T21:10:32.371Z,12.40
2023-05-24T21:12:59.363Z,12.30
2023-05-24T21:15:26.244Z,12.10
2023-05-24T21:17:53.210Z,12.00
2023-05-24T21:20:20.176Z,12.10
2023-05-24T21:22:47.415Z,12.30
2023-05-24T21:25:14.336Z,12.20
2023-05-24T21:27:41.218Z,12.20
2023-05-24T21:30:08.873Z,12.10
2023-05-24T21:32:35.934Z,12.10
2023-05-24T21:35:02.876Z,12.20
2023-05-24T21:37:29.800Z,12.10
2023-05-24T21:39:56.658Z,11.90
2023-05-24T21:42:23.527Z,11.80
2023-05-24T21:44:50.555Z,11.80
2023-05-24T21:47:17.471Z,11.80
2023-05-24T21:49:44.644Z,12.00
2023-05-24T21:52:11.772Z,11.80
2023-05-24T21:54:38.685Z,11.80
2023-05-24T21:57:06.939Z,11.70
2023-05-24T21:59:33.874Z,11.60
2023-05-24T22:02:00.914Z,11.60
2023-05-24T22:04:28.033Z,11.70
2023-05-24T22:06:54.890Z,11.50
2023-05-24T22:09:22.113Z,11.40
2023-05-24T22:11:49.002Z,11.30
2023-05-24T22:14:16.133Z,11.30
2023-05-24T22:16:43.225Z,11.30
2023-05-24T22:19:12.249Z,11.30
2023-05-24T22:21:41.985Z,11.40
2023-05-24T22:24:09.819Z,11.40
2023-05-24T22:26:37.028Z,11.50
2023-05-24T22:29:04.577Z,11.50
2023-05-24T22:31:33.713Z,11.40
2023-05-24T22:34:02.238Z,11.40
2023-05-24T22:36:33.654Z,11.20
2023-05-24T22:39:01.391Z,11.10
2023-05-24T22:41:28.636Z,11.00
2023-05-24T22:43:56.945Z,10.80
2023-05-24T22:46:24.703Z,10.90
2023-05-24T22:48:52.550Z,11.10
2023-05-24T22:51:20.527Z,11.10
2023-05-24T22:53:48.217Z,11.10
2023-05-24T22:56:15.313Z,11.10
2023-05-24T22:58:42.247Z,11.10
2023-05-24T23:01:09.124Z,11.10
2023-05-24T23:03:36.309Z,11.00
2023-05-24T23:06:06.083Z,11.00
2023-05-24T23:08:33.945Z,10.90
2023-05-24T23:11:01.180Z,11.00
2023-05-24T23:13:28.347Z,11.00
2023-05-24T23:15:58.726Z,11.10
2023-05-24T23:18:26.526Z,11.00
2023-05-24T23:20:57.114Z,11.00
2023-05-24T23:23:25.049Z,11.00
2023-05-24T23:25:52.050Z,11.00
2023-05-24T23:28:19.269Z,10.90
2023-05-24T23:30:46.328Z,10.90
2023-05-24T23:33:13.210Z,10.80
2023-05-24T23:35:40.193Z,10.70
2023-05-24T23:38:07.124Z,10.50
2023-05-24T23:40:34.604Z,10.30
2023-05-24T23:43:01.497Z,10.10
2023-05-24T23:45:28.417Z,10.10
2023-05-24T23:47:55.418Z,9.90
2023-05-24T23:50:22.792Z,10.00
2023-05-24T23:52:50.357Z,10.10
2023-05-24T23:55:17.595Z,10.20
2023-05-24T23:57:45.991Z,10.30
